sensor_id;sensor_type;location;lat;lon;timestamp;temperature;humidity
12688;DHT22;6408;59.388;17.798;2023-05-02T00:01:45;7.20;99.90
12688;DHT22;6408;59.388;17.798;2023-05-02T00:04:12;7.20;99.90
12688;DHT22;6408;59.388;17.798;2023-05-02T00:06:40;7.20;99.90
12688;DHT22;6408;59.388;17.798;2023-05-02T00:09:10;7.20;99.90
12688;DHT22;6408;59.388;17.798;2023-05-02T00:11:38;7.10;99.90
12688;DHT22;6408;59.388;17.798;2023-05-02T00:14:06;7.10;99.90
12688;DHT22;6408;59.388;17.798;2023-05-02T00:16:33;7.10;99.90
12688;DHT22;6408;59.388;17.798;2023-05-02T00:19:02;7.00;99.90
12688;DHT22;6408;59.388;17.798;2023-05-02T00:21:30;7.00;99.90
12688;DHT22;6408;59.388;17.798;2023-05-02T00:23:58;7.00;99.90
12688;DHT22;6408;59.388;17.798;2023-05-02T00:26:25;6.90;99.90
12688;DHT22;6408;59.388;17.798;2023-05-02T00:28:53;6.70;99.90
12688;DHT22;6408;59.388;17.798;2023-05-02T00:31:21;6.60;99.90
12688;DHT22;6408;59.388;17.798;2023-05-02T00:33:48;6.50;99.90
12688;DHT22;6408;59.388;17.798;2023-05-02T00:36:18;6.40;99.90
12688;DHT22;6408;59.388;17.798;2023-05-02T00:38:46;6.40;99.90
12688;DHT22;6408;59.388;17.798;2023-05-02T00:41:13;6.40;99.90
12688;DHT22;6408;59.388;17.798;2023-05-02T00:43:42;6.30;99.90
12688;DHT22;6408;59.388;17.798;2023-05-02T00:46:10;6.30;99.90
12688;DHT22;6408;59.388;17.798;2023-05-02T00:48:38;6.20;99.90
12688;DHT22;6408;59.388;17.798;2023-05-02T00:51:06;6.20;99.90
12688;DHT22;6408;59.388;17.798;2023-05-02T00:53:38;6.20;99.90
12688;DHT22;6408;59.388;17.798;2023-05-02T00:56:06;6.10;99.90
12688;DHT22;6408;59.388;17.798;2023-05-02T00:58:34;6.10;99.90
12688;DHT22;6408;59.388;17.798;2023-05-02T01:01:10;6.00;99.90
12688;DHT22;6408;59.388;17.798;2023-05-02T01:03:48;6.00;99.90
12688;DHT22;6408;59.388;17.798;2023-05-02T01:06:30;6.00;99.90
12688;DHT22;6408;59.388;17.798;2023-05-02T01:09:11;5.90;99.90
12688;DHT22;6408;59.388;17.798;2023-05-02T01:11:47;5.90;99.90
12688;DHT22;6408;59.388;17.798;2023-05-02T01:14:17;5.90;99.90
12688;DHT22;6408;59.388;17.798;2023-05-02T01:16:46;5.90;99.90
12688;DHT22;6408;59.388;17.798;2023-05-02T01:19:25;5.90;99.90
12688;DHT22;6408;59.388;17.798;2023-05-02T01:21:56;5.90;99.90
12688;DHT22;6408;59.388;17.798;2023-05-02T01:24:31;5.80;99.90
12688;DHT22;6408;59.388;17.798;2023-05-02T01:27:14;5.80;99.90
12688;DHT22;6408;59.388;17.798;2023-05-02T01:29:49;5.80;99.90
12688;DHT22;6408;59.388;17.798;2023-05-02T01:32:19;5.70;99.90
12688;DHT22;6408;59.388;17.798;2023-05-02T01:34:49;5.70;99.90
12688;DHT22;6408;59.388;17.798;2023-05-02T01:37:18;5.60;99.90
12688;DHT22;6408;59.388;17.798;2023-05-02T01:39:48;5.70;99.90
12688;DHT22;6408;59.388;17.798;2023-05-02T01:42:17;5.60;99.90
12688;DHT22;6408;59.388;17.798;2023-05-02T01:44:49;5.50;99.90
12688;DHT22;6408;59.388;17.798;2023-05-02T01:47:18;5.50;99.90
12688;DHT22;6408;59.388;17.798;2023-05-02T01:49:46;5.40;99.90
12688;DHT22;6408;59.388;17.798;2023-05-02T01:52:14;5.30;99.90
12688;DHT22;6408;59.388;17.798;2023-05-02T01:54:43;5.30;99.90
12688;DHT22;6408;59.388;17.798;2023-05-02T01:57:11;5.30;99.90
12688;DHT22;6408;59.388;17.798;2023-05-02T01:59:40;5.20;99.90
12688;DHT22;6408;59.388;17.798;2023-05-02T02:02:13;5.30;99.90
12688;DHT22;6408;59.388;17.798;2023-05-02T02:04:40;5.30;99.90
12688;DHT22;6408;59.388;17.798;2023-05-02T02:07:10;5.30;99.90
12688;DHT22;6408;59.388;17.798;2023-05-02T02:09:39;5.30;99.90
12688;DHT22;6408;59.388;17.798;2023-05-02T02:12:11;5.20;99.90
12688;DHT22;6408;59.388;17.798;2023-05-02T02:14:42;5.10;99.90
12688;DHT22;6408;59.388;17.798;2023-05-02T02:17:19;5.00;99.90
12688;DHT22;6408;59.388;17.798;2023-05-02T02:19:49;5.00;99.90
12688;DHT22;6408;59.388;17.798;2023-05-02T02:22:20;4.90;99.90
12688;DHT22;6408;59.388;17.798;2023-05-02T02:24:51;4.80;99.90
12688;DHT22;6408;59.388;17.798;2023-05-02T02:27:19;4.80;99.90
12688;DHT22;6408;59.388;17.798;2023-05-02T02:29:47;4.80;99.90
12688;DHT22;6408;59.388;17.798;2023-05-02T02:32:16;4.80;99.90
12688;DHT22;6408;59.388;17.798;2023-05-02T02:34:44;4.80;99.90
12688;DHT22;6408;59.388;17.798;2023-05-02T02:37:15;4.80;99.90
12688;DHT22;6408;59.388;17.798;2023-05-02T02:39:52;4.80;99.90
12688;DHT22;6408;59.388;17.798;2023-05-02T02:42:26;4.80;99.90
12688;DHT22;6408;59.388;17.798;2023-05-02T02:45:04;4.80;99.90
12688;DHT22;6408;59.388;17.798;2023-05-02T02:47:41;4.70;99.90
12688;DHT22;6408;59.388;17.798;2023-05-02T02:50:14;4.70;99.90
12688;DHT22;6408;59.388;17.798;2023-05-02T02:52:52;4.60;99.90
12688;DHT22;6408;59.388;17.798;2023-05-02T02:55:33;4.50;99.90
12688;DHT22;6408;59.388;17.798;2023-05-02T02:58:11;4.60;99.90
12688;DHT22;6408;59.388;17.798;2023-05-02T03:00:42;4.40;99.90
12688;DHT22;6408;59.388;17.798;2023-05-02T03:03:13;4.40;99.90
12688;DHT22;6408;59.388;17.798;2023-05-02T03:05:42;4.30;99.90
12688;DHT22;6408;59.388;17.798;2023-05-02T03:08:09;4.30;99.90
12688;DHT22;6408;59.388;17.798;2023-05-02T03:10:37;4.20;99.90
12688;DHT22;6408;59.388;17.798;2023-05-02T03:13:04;4.30;99.90
12688;DHT22;6408;59.388;17.798;2023-05-02T03:16:17;4.20;99.90
12688;DHT22;6408;59.388;17.798;2023-05-02T03:18:49;4.20;99.90
12688;DHT22;6408;59.388;17.798;2023-05-02T03:21:16;4.20;99.90
12688;DHT22;6408;59.388;17.798;2023-05-02T03:23:44;4.20;99.90
12688;DHT22;6408;59.388;17.798;2023-05-02T03:26:11;4.30;99.90
12688;DHT22;6408;59.388;17.798;2023-05-02T03:28:39;4.20;99.90
12688;DHT22;6408;59.388;17.798;2023-05-02T03:31:06;4.10;99.90
12688;DHT22;6408;59.388;17.798;2023-05-02T03:33:34;4.10;99.90
12688;DHT22;6408;59.388;17.798;2023-05-02T03:36:04;4.10;99.90
12688;DHT22;6408;59.388;17.798;2023-05-02T03:38:31;4.10;99.90
12688;DHT22;6408;59.388;17.798;2023-05-02T03:40:59;4.00;99.90
12688;DHT22;6408;59.388;17.798;2023-05-02T03:43:27;4.10;99.90
12688;DHT22;6408;59.388;17.798;2023-05-02T03:45:55;4.10;99.90
12688;DHT22;6408;59.388;17.798;2023-05-02T03:48:22;4.10;99.90
12688;DHT22;6408;59.388;17.798;2023-05-02T03:50:50;4.00;99.90
12688;DHT22;6408;59.388;17.798;2023-05-02T03:53:19;3.90;99.90
12688;DHT22;6408;59.388;17.798;2023-05-02T03:55:47;3.90;99.90
12688;DHT22;6408;59.388;17.798;2023-05-02T03:58:14;3.90;99.90
12688;DHT22;6408;59.388;17.798;2023-05-02T04:00:42;4.00;99.90
12688;DHT22;6408;59.388;17.798;2023-05-02T04:03:09;4.00;99.90
12688;DHT22;6408;59.388;17.798;2023-05-02T04:05:37;4.00;99.90
12688;DHT22;6408;59.388;17.798;2023-05-02T04:08:05;4.00;99.90
12688;DHT22;6408;59.388;17.798;2023-05-02T04:10:34;4.00;99.90
12688;DHT22;6408;59.388;17.798;2023-05-02T04:13:02;3.90;99.90
12688;DHT22;6408;59.388;17.798;2023-05-02T04:15:30;3.90;99.90
12688;DHT22;6408;59.388;17.798;2023-05-02T04:17:58;4.00;99.90
12688;DHT22;6408;59.388;17.798;2023-05-02T04:20:25;4.00;99.90
12688;DHT22;6408;59.388;17.798;2023-05-02T04:22:53;4.00;99.90
12688;DHT22;6408;59.388;17.798;2023-05-02T04:25:20;4.00;99.90
12688;DHT22;6408;59.388;17.798;2023-05-02T04:27:50;4.00;99.90
12688;DHT22;6408;59.388;17.798;2023-05-02T04:30:17;4.00;99.90
12688;DHT22;6408;59.388;17.798;2023-05-02T04:32:45;4.10;99.90
12688;DHT22;6408;59.388;17.798;2023-05-02T04:35:13;4.00;99.90
12688;DHT22;6408;59.388;17.798;2023-05-02T04:37:42;4.00;99.90
12688;DHT22;6408;59.388;17.798;2023-05-02T04:40:10;4.00;99.90
12688;DHT22;6408;59.388;17.798;2023-05-02T04:42:37;4.00;99.90
12688;DHT22;6408;59.388;17.798;2023-05-02T04:45:08;4.00;99.90
12688;DHT22;6408;59.388;17.798;2023-05-02T04:47:35;4.00;99.90
12688;DHT22;6408;59.388;17.798;2023-05-02T04:50:03;4.00;99.90
12688;DHT22;6408;59.388;17.798;2023-05-02T04:52:31;4.00;99.90
12688;DHT22;6408;59.388;17.798;2023-05-02T04:54:59;4.00;99.90
12688;DHT22;6408;59.388;17.798;2023-05-02T04:57:26;4.00;99.90
12688;DHT22;6408;59.388;17.798;2023-05-02T04:59:54;4.10;99.90
12688;DHT22;6408;59.388;17.798;2023-05-02T05:02:23;4.10;99.90
12688;DHT22;6408;59.388;17.798;2023-05-02T05:04:50;4.20;99.90
12688;DHT22;6408;59.388;17.798;2023-05-02T05:07:18;4.20;99.90
12688;DHT22;6408;59.388;17.798;2023-05-02T05:09:45;4.20;99.90
12688;DHT22;6408;59.388;17.798;2023-05-02T05:12:13;4.20;99.90
12688;DHT22;6408;59.388;17.798;2023-05-02T05:14:40;4.10;99.90
12688;DHT22;6408;59.388;17.798;2023-05-02T05:17:09;4.10;99.90
12688;DHT22;6408;59.388;17.798;2023-05-02T05:19:38;4.10;99.90
12688;DHT22;6408;59.388;17.798;2023-05-02T05:22:05;4.10;99.90
12688;DHT22;6408;59.388;17.798;2023-05-02T05:24:33;4.20;99.90
12688;DHT22;6408;59.388;17.798;2023-05-02T05:27:01;4.20;99.90
12688;DHT22;6408;59.388;17.798;2023-05-02T05:29:30;4.20;99.90
12688;DHT22;6408;59.388;17.798;2023-05-02T05:31:58;4.20;99.90
12688;DHT22;6408;59.388;17.798;2023-05-02T05:34:25;4.20;99.90
12688;DHT22;6408;59.388;17.798;2023-05-02T05:36:54;4.20;99.90
12688;DHT22;6408;59.388;17.798;2023-05-02T05:39:22;4.10;99.90
12688;DHT22;6408;59.388;17.798;2023-05-02T05:41:50;4.20;99.90
12688;DHT22;6408;59.388;17.798;2023-05-02T05:44:19;4.20;99.90
12688;DHT22;6408;59.388;17.798;2023-05-02T05:46:47;4.20;99.90
12688;DHT22;6408;59.388;17.798;2023-05-02T05:49:15;4.10;99.90
12688;DHT22;6408;59.388;17.798;2023-05-02T05:51:42;4.20;99.90
12688;DHT22;6408;59.388;17.798;2023-05-02T05:54:13;4.20;99.90
12688;DHT22;6408;59.388;17.798;2023-05-02T05:56:42;4.20;99.90
12688;DHT22;6408;59.388;17.798;2023-05-02T05:59:10;4.20;99.90
12688;DHT22;6408;59.388;17.798;2023-05-02T06:01:37;4.30;99.90
12688;DHT22;6408;59.388;17.798;2023-05-02T06:04:05;4.30;99.90
12688;DHT22;6408;59.388;17.798;2023-05-02T06:06:33;4.40;99.90
12688;DHT22;6408;59.388;17.798;2023-05-02T06:09:00;4.30;99.90
12688;DHT22;6408;59.388;17.798;2023-05-02T06:11:30;4.30;99.90
12688;DHT22;6408;59.388;17.798;2023-05-02T06:13:58;4.30;99.90
12688;DHT22;6408;59.388;17.798;2023-05-02T06:16:25;4.30;99.90
12688;DHT22;6408;59.388;17.798;2023-05-02T06:18:53;4.30;99.90
12688;DHT22;6408;59.388;17.798;2023-05-02T06:21:20;4.40;99.90
12688;DHT22;6408;59.388;17.798;2023-05-02T06:23:48;4.40;99.90
12688;DHT22;6408;59.388;17.798;2023-05-02T06:26:15;4.40;99.90
12688;DHT22;6408;59.388;17.798;2023-05-02T06:28:45;4.40;99.90
12688;DHT22;6408;59.388;17.798;2023-05-02T06:31:12;4.40;99.90
12688;DHT22;6408;59.388;17.798;2023-05-02T06:33:41;4.40;99.90
12688;DHT22;6408;59.388;17.798;2023-05-02T06:36:10;4.40;99.90
12688;DHT22;6408;59.388;17.798;2023-05-02T06:38:38;4.50;99.90
12688;DHT22;6408;59.388;17.798;2023-05-02T06:41:06;4.50;99.90
12688;DHT22;6408;59.388;17.798;2023-05-02T06:43:38;4.40;99.90
12688;DHT22;6408;59.388;17.798;2023-05-02T06:46:08;4.40;99.90
12688;DHT22;6408;59.388;17.798;2023-05-02T06:48:35;4.40;99.90
12688;DHT22;6408;59.388;17.798;2023-05-02T06:51:03;4.30;99.90
12688;DHT22;6408;59.388;17.798;2023-05-02T06:53:30;4.40;99.90
12688;DHT22;6408;59.388;17.798;2023-05-02T06:55:58;4.40;99.90
12688;DHT22;6408;59.388;17.798;2023-05-02T06:58:26;4.40;99.90
12688;DHT22;6408;59.388;17.798;2023-05-02T07:00:53;4.40;99.90
12688;DHT22;6408;59.388;17.798;2023-05-02T07:03:23;4.30;99.90
12688;DHT22;6408;59.388;17.798;2023-05-02T07:05:50;4.40;99.90
12688;DHT22;6408;59.388;17.798;2023-05-02T07:08:18;4.40;99.90
12688;DHT22;6408;59.388;17.798;2023-05-02T07:10:47;4.50;99.90
12688;DHT22;6408;59.388;17.798;2023-05-02T07:13:14;4.50;99.90
12688;DHT22;6408;59.388;17.798;2023-05-02T07:15:42;4.50;99.90
12688;DHT22;6408;59.388;17.798;2023-05-02T07:18:09;4.60;99.90
12688;DHT22;6408;59.388;17.798;2023-05-02T07:20:38;4.60;99.90
12688;DHT22;6408;59.388;17.798;2023-05-02T07:23:07;4.90;99.90
12688;DHT22;6408;59.388;17.798;2023-05-02T07:25:35;5.20;99.90
12688;DHT22;6408;59.388;17.798;2023-05-02T07:28:04;5.20;99.90
12688;DHT22;6408;59.388;17.798;2023-05-02T07:30:32;5.20;99.90
12688;DHT22;6408;59.388;17.798;2023-05-02T07:32:59;5.20;99.90
12688;DHT22;6408;59.388;17.798;2023-05-02T07:35:27;5.20;99.90
12688;DHT22;6408;59.388;17.798;2023-05-02T07:37:56;5.40;99.90
12688;DHT22;6408;59.388;17.798;2023-05-02T07:40:24;5.70;99.90
12688;DHT22;6408;59.388;17.798;2023-05-02T07:42:53;6.00;99.90
12688;DHT22;6408;59.388;17.798;2023-05-02T07:45:20;6.00;99.90
12688;DHT22;6408;59.388;17.798;2023-05-02T07:47:48;5.80;99.90
12688;DHT22;6408;59.388;17.798;2023-05-02T07:50:15;5.80;99.90
12688;DHT22;6408;59.388;17.798;2023-05-02T07:52:43;5.80;99.90
12688;DHT22;6408;59.388;17.798;2023-05-02T07:55:12;5.70;99.90
12688;DHT22;6408;59.388;17.798;2023-05-02T07:57:39;5.60;99.90
12688;DHT22;6408;59.388;17.798;2023-05-02T08:00:08;5.80;99.90
12688;DHT22;6408;59.388;17.798;2023-05-02T08:02:36;5.80;99.90
12688;DHT22;6408;59.388;17.798;2023-05-02T08:05:04;5.80;99.90
12688;DHT22;6408;59.388;17.798;2023-05-02T08:07:32;5.80;99.90
12688;DHT22;6408;59.388;17.798;2023-05-02T08:09:59;5.80;99.90
12688;DHT22;6408;59.388;17.798;2023-05-02T08:12:29;5.80;99.90
12688;DHT22;6408;59.388;17.798;2023-05-02T08:14:56;5.70;99.90
12688;DHT22;6408;59.388;17.798;2023-05-02T08:17:24;5.70;99.90
12688;DHT22;6408;59.388;17.798;2023-05-02T08:19:53;5.60;99.90
12688;DHT22;6408;59.388;17.798;2023-05-02T08:22:21;5.70;99.90
12688;DHT22;6408;59.388;17.798;2023-05-02T08:24:48;5.90;99.90
12688;DHT22;6408;59.388;17.798;2023-05-02T08:27:15;6.50;99.90
12688;DHT22;6408;59.388;17.798;2023-05-02T08:29:45;7.10;99.90
12688;DHT22;6408;59.388;17.798;2023-05-02T08:32:12;7.30;99.90
12688;DHT22;6408;59.388;17.798;2023-05-02T08:34:40;7.50;99.90
12688;DHT22;6408;59.388;17.798;2023-05-02T08:37:08;7.90;99.90
12688;DHT22;6408;59.388;17.798;2023-05-02T08:39:36;8.00;99.90
12688;DHT22;6408;59.388;17.798;2023-05-02T08:42:05;8.20;99.90
12688;DHT22;6408;59.388;17.798;2023-05-02T08:44:33;8.10;99.90
12688;DHT22;6408;59.388;17.798;2023-05-02T08:47:04;8.30;99.90
12688;DHT22;6408;59.388;17.798;2023-05-02T08:49:34;8.40;99.90
12688;DHT22;6408;59.388;17.798;2023-05-02T08:52:01;8.30;99.90
12688;DHT22;6408;59.388;17.798;2023-05-02T08:54:31;8.40;99.90
12688;DHT22;6408;59.388;17.798;2023-05-02T08:56:59;8.80;99.90
12688;DHT22;6408;59.388;17.798;2023-05-02T08:59:29;8.70;99.90
12688;DHT22;6408;59.388;17.798;2023-05-02T09:02:00;8.80;99.90
12688;DHT22;6408;59.388;17.798;2023-05-02T09:04:33;9.00;99.90
12688;DHT22;6408;59.388;17.798;2023-05-02T09:07:05;9.00;99.90
12688;DHT22;6408;59.388;17.798;2023-05-02T09:09:33;8.80;99.90
12688;DHT22;6408;59.388;17.798;2023-05-02T09:12:01;8.90;99.90
12688;DHT22;6408;59.388;17.798;2023-05-02T09:14:29;9.30;99.90
12688;DHT22;6408;59.388;17.798;2023-05-02T09:16:58;9.70;99.90
12688;DHT22;6408;59.388;17.798;2023-05-02T09:19:26;9.60;99.90
12688;DHT22;6408;59.388;17.798;2023-05-02T09:22:00;9.70;99.90
12688;DHT22;6408;59.388;17.798;2023-05-02T09:24:27;9.20;99.90
12688;DHT22;6408;59.388;17.798;2023-05-02T09:26:57;9.20;99.90
12688;DHT22;6408;59.388;17.798;2023-05-02T09:29:26;9.50;99.90
12688;DHT22;6408;59.388;17.798;2023-05-02T09:31:55;9.60;99.90
12688;DHT22;6408;59.388;17.798;2023-05-02T09:34:22;9.40;99.90
12688;DHT22;6408;59.388;17.798;2023-05-02T09:36:51;8.60;99.90
12688;DHT22;6408;59.388;17.798;2023-05-02T09:39:22;8.30;99.90
12688;DHT22;6408;59.388;17.798;2023-05-02T09:41:50;8.50;99.90
12688;DHT22;6408;59.388;17.798;2023-05-02T09:44:19;8.60;99.90
12688;DHT22;6408;59.388;17.798;2023-05-02T09:46:47;8.70;99.90
12688;DHT22;6408;59.388;17.798;2023-05-02T09:49:16;9.10;99.90
12688;DHT22;6408;59.388;17.798;2023-05-02T09:51:45;9.40;99.90
12688;DHT22;6408;59.388;17.798;2023-05-02T09:54:12;9.60;99.90
12688;DHT22;6408;59.388;17.798;2023-05-02T09:56:55;9.50;99.90
12688;DHT22;6408;59.388;17.798;2023-05-02T09:59:23;9.30;99.90
12688;DHT22;6408;59.388;17.798;2023-05-02T10:01:55;9.50;99.90
12688;DHT22;6408;59.388;17.798;2023-05-02T10:04:23;9.90;99.90
12688;DHT22;6408;59.388;17.798;2023-05-02T10:06:52;10.20;99.90
12688;DHT22;6408;59.388;17.798;2023-05-02T10:09:21;10.30;99.90
12688;DHT22;6408;59.388;17.798;2023-05-02T10:11:52;10.70;99.90
12688;DHT22;6408;59.388;17.798;2023-05-02T10:14:22;10.80;99.90
12688;DHT22;6408;59.388;17.798;2023-05-02T10:16:57;11.10;99.90
12688;DHT22;6408;59.388;17.798;2023-05-02T10:19:29;10.80;99.90
12688;DHT22;6408;59.388;17.798;2023-05-02T10:21:58;10.90;99.90
12688;DHT22;6408;59.388;17.798;2023-05-02T10:24:27;10.60;99.90
12688;DHT22;6408;59.388;17.798;2023-05-02T10:26:55;10.60;99.90
12688;DHT22;6408;59.388;17.798;2023-05-02T10:29:27;10.50;99.90
12688;DHT22;6408;59.388;17.798;2023-05-02T10:31:56;10.30;99.90
12688;DHT22;6408;59.388;17.798;2023-05-02T10:34:24;10.30;99.90
12688;DHT22;6408;59.388;17.798;2023-05-02T10:36:54;10.50;99.90
12688;DHT22;6408;59.388;17.798;2023-05-02T10:39:26;10.80;99.90
12688;DHT22;6408;59.388;17.798;2023-05-02T10:41:56;11.20;99.90
12688;DHT22;6408;59.388;17.798;2023-05-02T10:44:33;11.40;99.90
12688;DHT22;6408;59.388;17.798;2023-05-02T10:47:17;11.50;99.90
12688;DHT22;6408;59.388;17.798;2023-05-02T10:49:50;11.30;99.90
12688;DHT22;6408;59.388;17.798;2023-05-02T10:52:32;11.00;99.90
12688;DHT22;6408;59.388;17.798;2023-05-02T10:55:16;10.60;99.90
12688;DHT22;6408;59.388;17.798;2023-05-02T10:58:21;10.40;99.90
12688;DHT22;6408;59.388;17.798;2023-05-02T11:00:51;10.30;99.90
12688;DHT22;6408;59.388;17.798;2023-05-02T11:06:28;10.30;99.90
12688;DHT22;6408;59.388;17.798;2023-05-02T11:09:31;10.80;99.90
12688;DHT22;6408;59.388;17.798;2023-05-02T11:12:02;11.30;99.90
12688;DHT22;6408;59.388;17.798;2023-05-02T11:15:04;11.60;99.90
12688;DHT22;6408;59.388;17.798;2023-05-02T11:17:57;11.40;99.90
12688;DHT22;6408;59.388;17.798;2023-05-02T11:23:35;11.60;99.90
12688;DHT22;6408;59.388;17.798;2023-05-02T11:26:20;11.60;99.90
12688;DHT22;6408;59.388;17.798;2023-05-02T11:28:49;12.00;99.90
12688;DHT22;6408;59.388;17.798;2023-05-02T11:35:05;12.50;99.90
12688;DHT22;6408;59.388;17.798;2023-05-02T11:37:41;12.10;99.90
12688;DHT22;6408;59.388;17.798;2023-05-02T11:40:12;11.60;99.90
12688;DHT22;6408;59.388;17.798;2023-05-02T11:42:53;11.60;99.90
12688;DHT22;6408;59.388;17.798;2023-05-02T11:45:21;11.90;99.90
12688;DHT22;6408;59.388;17.798;2023-05-02T11:47:52;11.90;99.90
12688;DHT22;6408;59.388;17.798;2023-05-02T11:50:33;11.60;99.90
12688;DHT22;6408;59.388;17.798;2023-05-02T11:53:11;11.50;99.90
12688;DHT22;6408;59.388;17.798;2023-05-02T11:55:45;11.60;99.90
12688;DHT22;6408;59.388;17.798;2023-05-02T11:58:14;11.70;99.90
12688;DHT22;6408;59.388;17.798;2023-05-02T12:01:15;11.60;99.90
12688;DHT22;6408;59.388;17.798;2023-05-02T12:03:42;11.50;99.90
12688;DHT22;6408;59.388;17.798;2023-05-02T12:06:11;11.60;99.90
12688;DHT22;6408;59.388;17.798;2023-05-02T12:08:41;11.60;99.90
12688;DHT22;6408;59.388;17.798;2023-05-02T12:11:09;11.70;99.90
12688;DHT22;6408;59.388;17.798;2023-05-02T12:13:44;12.00;99.90
12688;DHT22;6408;59.388;17.798;2023-05-02T12:16:14;12.20;99.90
12688;DHT22;6408;59.388;17.798;2023-05-02T12:18:42;12.30;99.90
12688;DHT22;6408;59.388;17.798;2023-05-02T12:21:09;12.30;99.90
12688;DHT22;6408;59.388;17.798;2023-05-02T12:23:39;12.20;99.90
12688;DHT22;6408;59.388;17.798;2023-05-02T12:26:16;12.50;99.90
12688;DHT22;6408;59.388;17.798;2023-05-02T12:28:47;12.90;99.90
12688;DHT22;6408;59.388;17.798;2023-05-02T12:31:17;13.00;99.90
12688;DHT22;6408;59.388;17.798;2023-05-02T12:33:46;13.00;99.90
12688;DHT22;6408;59.388;17.798;2023-05-02T12:36:15;13.00;99.90
12688;DHT22;6408;59.388;17.798;2023-05-02T12:38:47;13.20;99.90
12688;DHT22;6408;59.388;17.798;2023-05-02T12:41:15;13.50;99.90
12688;DHT22;6408;59.388;17.798;2023-05-02T12:43:45;13.50;99.90
12688;DHT22;6408;59.388;17.798;2023-05-02T12:46:13;13.10;99.90
12688;DHT22;6408;59.388;17.798;2023-05-02T12:48:42;13.30;99.90
12688;DHT22;6408;59.388;17.798;2023-05-02T12:51:20;13.10;99.90
12688;DHT22;6408;59.388;17.798;2023-05-02T12:53:48;12.80;99.90
12688;DHT22;6408;59.388;17.798;2023-05-02T12:56:16;12.70;99.90
12688;DHT22;6408;59.388;17.798;2023-05-02T12:58:46;12.50;99.90
12688;DHT22;6408;59.388;17.798;2023-05-02T13:01:14;12.40;99.90
12688;DHT22;6408;59.388;17.798;2023-05-02T13:03:43;12.40;99.90
12688;DHT22;6408;59.388;17.798;2023-05-02T13:06:11;12.20;99.90
12688;DHT22;6408;59.388;17.798;2023-05-02T13:08:39;12.00;99.90
12688;DHT22;6408;59.388;17.798;2023-05-02T13:11:06;12.00;99.90
12688;DHT22;6408;59.388;17.798;2023-05-02T13:13:33;12.00;99.90
12688;DHT22;6408;59.388;17.798;2023-05-02T13:16:01;11.80;99.90
12688;DHT22;6408;59.388;17.798;2023-05-02T13:18:29;11.60;99.90
12688;DHT22;6408;59.388;17.798;2023-05-02T13:20:58;11.40;99.90
12688;DHT22;6408;59.388;17.798;2023-05-02T13:23:26;11.50;99.90
12688;DHT22;6408;59.388;17.798;2023-05-02T13:25:54;11.40;99.90
12688;DHT22;6408;59.388;17.798;2023-05-02T13:28:21;11.50;99.90
12688;DHT22;6408;59.388;17.798;2023-05-02T13:30:49;11.50;99.90
12688;DHT22;6408;59.388;17.798;2023-05-02T13:33:16;11.50;99.90
12688;DHT22;6408;59.388;17.798;2023-05-02T13:35:44;11.70;99.90
12688;DHT22;6408;59.388;17.798;2023-05-02T13:38:13;11.80;99.90
12688;DHT22;6408;59.388;17.798;2023-05-02T13:40:41;11.80;99.90
12688;DHT22;6408;59.388;17.798;2023-05-02T13:43:09;11.70;99.90
12688;DHT22;6408;59.388;17.798;2023-05-02T13:45:36;11.40;99.90
12688;DHT22;6408;59.388;17.798;2023-05-02T13:48:04;11.20;99.90
12688;DHT22;6408;59.388;17.798;2023-05-02T13:50:32;11.10;99.90
12688;DHT22;6408;59.388;17.798;2023-05-02T13:53:01;11.10;99.90
12688;DHT22;6408;59.388;17.798;2023-05-02T13:55:31;10.90;99.90
12688;DHT22;6408;59.388;17.798;2023-05-02T13:57:58;10.80;99.90
12688;DHT22;6408;59.388;17.798;2023-05-02T14:00:26;10.80;99.90
12688;DHT22;6408;59.388;17.798;2023-05-02T14:02:54;10.80;99.90
12688;DHT22;6408;59.388;17.798;2023-05-02T14:05:21;10.80;99.90
12688;DHT22;6408;59.388;17.798;2023-05-02T14:07:48;10.70;99.90
12688;DHT22;6408;59.388;17.798;2023-05-02T14:10:16;10.60;99.90
12688;DHT22;6408;59.388;17.798;2023-05-02T14:12:45;10.40;99.90
12688;DHT22;6408;59.388;17.798;2023-05-02T14:15:13;10.10;99.90
12688;DHT22;6408;59.388;17.798;2023-05-02T14:17:41;9.90;99.90
12688;DHT22;6408;59.388;17.798;2023-05-02T14:20:09;10.00;99.90
12688;DHT22;6408;59.388;17.798;2023-05-02T14:22:36;10.50;99.90
12688;DHT22;6408;59.388;17.798;2023-05-02T14:25:05;10.70;99.90
12688;DHT22;6408;59.388;17.798;2023-05-02T14:27:32;10.80;99.90
12688;DHT22;6408;59.388;17.798;2023-05-02T14:30:01;10.50;99.90
12688;DHT22;6408;59.388;17.798;2023-05-02T14:32:29;10.30;99.90
12688;DHT22;6408;59.388;17.798;2023-05-02T14:34:56;10.30;99.90
12688;DHT22;6408;59.388;17.798;2023-05-02T14:37:24;10.30;99.90
12688;DHT22;6408;59.388;17.798;2023-05-02T14:39:51;10.20;99.90
12688;DHT22;6408;59.388;17.798;2023-05-02T14:42:20;10.20;99.90
12688;DHT22;6408;59.388;17.798;2023-05-02T14:44:48;10.00;99.90
12688;DHT22;6408;59.388;17.798;2023-05-02T14:47:18;10.00;99.90
12688;DHT22;6408;59.388;17.798;2023-05-02T14:49:46;10.40;99.90
12688;DHT22;6408;59.388;17.798;2023-05-02T14:52:13;10.70;99.90
12688;DHT22;6408;59.388;17.798;2023-05-02T14:54:40;10.90;99.90
12688;DHT22;6408;59.388;17.798;2023-05-02T14:57:08;10.80;99.90
12688;DHT22;6408;59.388;17.798;2023-05-02T14:59:35;10.70;99.90
12688;DHT22;6408;59.388;17.798;2023-05-02T15:02:03;10.70;99.90
12688;DHT22;6408;59.388;17.798;2023-05-02T15:04:32;10.70;99.90
12688;DHT22;6408;59.388;17.798;2023-05-02T15:07:00;10.90;99.90
12688;DHT22;6408;59.388;17.798;2023-05-02T15:09:27;11.10;99.90
12688;DHT22;6408;59.388;17.798;2023-05-02T15:11:55;11.30;99.90
12688;DHT22;6408;59.388;17.798;2023-05-02T15:14:22;11.60;99.90
12688;DHT22;6408;59.388;17.798;2023-05-02T15:16:50;11.30;99.90
12688;DHT22;6408;59.388;17.798;2023-05-02T15:19:18;11.20;99.90
12688;DHT22;6408;59.388;17.798;2023-05-02T15:21:48;10.90;99.90
12688;DHT22;6408;59.388;17.798;2023-05-02T15:24:17;10.70;99.90
12688;DHT22;6408;59.388;17.798;2023-05-02T15:26:45;10.70;99.90
12688;DHT22;6408;59.388;17.798;2023-05-02T15:29:13;10.70;99.90
12688;DHT22;6408;59.388;17.798;2023-05-02T15:31:40;10.60;99.90
12688;DHT22;6408;59.388;17.798;2023-05-02T15:34:08;10.80;99.90
12688;DHT22;6408;59.388;17.798;2023-05-02T15:36:35;10.90;99.90
12688;DHT22;6408;59.388;17.798;2023-05-02T15:39:05;11.00;99.90
12688;DHT22;6408;59.388;17.798;2023-05-02T15:41:33;11.10;99.90
12688;DHT22;6408;59.388;17.798;2023-05-02T15:44:00;11.10;99.90
12688;DHT22;6408;59.388;17.798;2023-05-02T15:46:28;11.10;99.90
12688;DHT22;6408;59.388;17.798;2023-05-02T15:48:55;11.10;99.90
12688;DHT22;6408;59.388;17.798;2023-05-02T15:51:23;11.10;99.90
12688;DHT22;6408;59.388;17.798;2023-05-02T15:53:51;11.20;99.90
12688;DHT22;6408;59.388;17.798;2023-05-02T15:56:20;11.30;99.90
12688;DHT22;6408;59.388;17.798;2023-05-02T15:58:48;11.30;99.90
12688;DHT22;6408;59.388;17.798;2023-05-02T16:01:16;11.20;99.90
12688;DHT22;6408;59.388;17.798;2023-05-02T16:03:45;11.10;99.90
12688;DHT22;6408;59.388;17.798;2023-05-02T16:06:13;11.00;99.90